Fults, Illinois
Current Conditions -  °F | °C
As of 2:53 AM on Thursday 18 Dec 2014 (Local Time) from KCPS Reporting Station
Overcast Overcast  
Wind Chill: 26°   Ceiling: 7000
Heat Index: 31°   Visibility: 10mi
Dew Point: 26°   Wind: 5mph
Humidity: 82%   Direction: 90°E
Pressure: 30.29"   Gusts: NA
Location:  38.17°N, 90.22°W
Report Text: KCPS 180853Z AUTO 09004KT 10SM FEW012 OVC070 M01/M03 A3029 RMK AO2 SLP259 T10061033 56009 TSNO
Loading
Personal Weather Stations






























Interactive Weather Map New forecast layout! Learn more

10-Day Weather Forecast

Advertisements
Track Severe Weather on mobile